createdAt,value
2018-09-24T00:00:59.877Z,59.36
2018-09-24T00:03:27.573Z,59.80
2018-09-24T00:05:55.901Z,61.04
2018-09-24T00:08:23.699Z,61.43
2018-09-24T00:10:51.641Z,62.59
2018-09-24T00:13:18.790Z,62.66
2018-09-24T00:15:45.761Z,62.29
2018-09-24T00:18:14.929Z,63.11
2018-09-24T00:20:42.793Z,64.03
2018-09-24T00:23:11.986Z,63.59
2018-09-24T00:25:40.293Z,63.04
2018-09-24T00:28:08.105Z,63.78
2018-09-24T00:30:36.023Z,64.79
2018-09-24T00:33:02.529Z,64.24
2018-09-24T00:35:29.051Z,62.70
2018-09-24T00:37:55.614Z,62.54
2018-09-24T00:40:22.127Z,62.74
2018-09-24T00:42:48.619Z,61.96
2018-09-24T00:45:15.209Z,61.76
2018-09-24T00:47:41.967Z,61.99
2018-09-24T00:50:08.529Z,61.49
2018-09-24T00:52:35.143Z,62.44
2018-09-24T00:55:01.837Z,61.18
2018-09-24T00:57:28.358Z,59.92
2018-09-24T00:59:54.855Z,61.09
2018-09-24T01:02:21.530Z,62.01
2018-09-24T01:04:48.016Z,62.01
2018-09-24T01:07:14.715Z,62.97
2018-09-24T01:09:41.440Z,61.79
2018-09-24T01:12:08.190Z,61.56
2018-09-24T01:14:34.832Z,61.18
2018-09-24T01:17:01.436Z,61.52
2018-09-24T01:19:28.005Z,61.84
2018-09-24T01:21:54.606Z,62.04
2018-09-24T01:24:21.228Z,62.58
2018-09-24T01:26:47.742Z,61.65
2018-09-24T01:29:14.374Z,61.10
2018-09-24T01:31:41.425Z,61.23
2018-09-24T01:34:08.130Z,62.77
2018-09-24T01:36:35.338Z,62.29
2018-09-24T01:39:03.710Z,61.73
2018-09-24T01:41:30.926Z,59.41
2018-09-24T01:43:57.408Z,60.43
2018-09-24T01:46:24.097Z,58.88
2018-09-24T01:48:50.830Z,59.76
2018-09-24T01:51:18.551Z,60.92
2018-09-24T01:53:45.803Z,62.13
2018-09-24T01:56:12.816Z,62.65
2018-09-24T01:58:40.241Z,62.57
2018-09-24T02:01:06.963Z,63.89
2018-09-24T02:03:33.504Z,64.52
2018-09-24T02:06:00.088Z,64.02
2018-09-24T02:08:26.619Z,63.22
2018-09-24T02:10:53.228Z,62.65
2018-09-24T02:13:20.231Z,62.98
2018-09-24T02:15:46.891Z,62.47
2018-09-24T02:18:13.554Z,61.54
2018-09-24T02:20:41.555Z,62.80
2018-09-24T02:23:08.742Z,62.77
2018-09-24T02:25:36.345Z,62.92
2018-09-24T02:28:04.103Z,63.29
2018-09-24T02:30:30.862Z,63.30
2018-09-24T02:32:57.541Z,63.36
2018-09-24T02:35:24.774Z,62.41
2018-09-24T02:37:53.163Z,62.58
2018-09-24T02:40:22.244Z,62.87
2018-09-24T02:42:48.932Z,63.42
2018-09-24T02:45:17.519Z,61.69
2018-09-24T02:47:44.896Z,61.14
2018-09-24T02:50:12.439Z,63.17
2018-09-24T02:52:39.074Z,63.07
2018-09-24T02:55:05.782Z,63.05
2018-09-24T02:57:33.093Z,63.03
2018-09-24T02:59:59.712Z,63.21
2018-09-24T03:02:26.998Z,63.84
2018-09-24T03:04:53.472Z,63.26
2018-09-24T03:07:20.120Z,61.68
2018-09-24T03:09:46.605Z,63.01
2018-09-24T03:12:13.757Z,63.62
2018-09-24T03:14:40.647Z,64.13
2018-09-24T03:17:08.091Z,64.16
2018-09-24T03:19:35.858Z,65.79
2018-09-24T03:22:03.240Z,65.31
2018-09-24T03:24:29.757Z,62.44
2018-09-24T03:26:56.296Z,63.52
2018-09-24T03:29:22.830Z,63.17
2018-09-24T03:31:49.421Z,60.89
2018-09-24T03:34:15.980Z,57.37
2018-09-24T03:36:42.607Z,58.64
2018-09-24T03:39:09.242Z,61.49
2018-09-24T03:41:35.739Z,61.37
2018-09-24T03:44:02.911Z,61.29
2018-09-24T03:46:29.637Z,63.30
2018-09-24T03:48:56.286Z,62.92
2018-09-24T03:51:23.109Z,61.32
2018-09-24T03:53:49.795Z,60.19
2018-09-24T03:56:16.334Z,60.27
2018-09-24T03:58:42.888Z,61.45
2018-09-24T04:01:09.510Z,60.75
2018-09-24T04:03:36.093Z,61.21
2018-09-24T04:06:03.691Z,59.89
2018-09-24T04:08:30.280Z,61.36
2018-09-24T04:10:56.989Z,61.08
2018-09-24T04:13:23.644Z,57.46
2018-09-24T04:15:50.226Z,59.16
2018-09-24T04:18:16.786Z,60.27
2018-09-24T04:20:43.518Z,59.68
2018-09-24T04:23:10.033Z,60.26
2018-09-24T04:25:36.833Z,61.53
2018-09-24T04:28:03.364Z,61.02
2018-09-24T04:30:29.917Z,61.81
2018-09-24T04:32:56.440Z,60.81
2018-09-24T04:35:23.053Z,56.66
2018-09-24T04:37:49.598Z,56.92
2018-09-24T04:40:16.152Z,56.89
2018-09-24T04:42:42.700Z,55.56
2018-09-24T04:45:09.196Z,51.75
2018-09-24T04:47:35.755Z,52.90
2018-09-24T04:50:02.388Z,52.63
2018-09-24T04:52:28.880Z,53.57
2018-09-24T04:54:55.393Z,53.77
2018-09-24T04:57:22.036Z,49.94
2018-09-24T04:59:48.554Z,51.92
2018-09-24T05:02:16.215Z,50.37
2018-09-24T05:04:42.889Z,50.42
2018-09-24T05:07:09.473Z,49.89
2018-09-24T05:09:36.075Z,51.28
2018-09-24T05:12:04.863Z,50.38
2018-09-24T05:14:32.203Z,51.59
2018-09-24T05:16:58.908Z,52.16
2018-09-24T05:19:26.000Z,52.66
2018-09-24T05:21:52.492Z,53.27
2018-09-24T05:24:19.022Z,52.62
2018-09-24T05:26:46.930Z,53.00
2018-09-24T05:29:14.464Z,53.51
2018-09-24T05:31:41.123Z,53.60
2018-09-24T05:34:07.662Z,53.50
2018-09-24T05:36:35.190Z,51.75
2018-09-24T05:39:01.874Z,51.75
2018-09-24T05:41:28.443Z,52.25
2018-09-24T05:43:54.924Z,52.11
2018-09-24T05:46:21.535Z,50.88
2018-09-24T05:48:51.845Z,50.68
2018-09-24T05:51:18.431Z,51.51
2018-09-24T05:53:44.903Z,51.39
2018-09-24T05:56:14.542Z,52.14
2018-09-24T05:58:41.561Z,50.23
2018-09-24T06:01:08.276Z,52.71
2018-09-24T06:03:34.820Z,52.58
2018-09-24T06:06:01.326Z,51.98
2018-09-24T06:08:27.861Z,50.02
2018-09-24T06:10:54.362Z,49.97
2018-09-24T06:13:20.899Z,50.65
2018-09-24T06:15:48.099Z,50.37
2018-09-24T06:18:14.678Z,50.98
2018-09-24T06:20:41.381Z,52.02
2018-09-24T06:23:07.919Z,49.29
2018-09-24T06:25:34.474Z,50.16
2018-09-24T06:28:01.031Z,49.86
2018-09-24T06:30:27.538Z,46.17
2018-09-24T06:32:54.175Z,45.85
2018-09-24T06:35:20.668Z,43.86
2018-09-24T06:37:47.224Z,42.90
2018-09-24T06:40:13.837Z,43.42
2018-09-24T06:42:40.356Z,43.81
2018-09-24T06:45:06.851Z,43.79
2018-09-24T06:47:33.425Z,43.86
2018-09-24T06:50:00.603Z,43.95
2018-09-24T06:52:27.203Z,42.24
2018-09-24T06:54:54.996Z,39.18
2018-09-24T06:57:21.540Z,41.01
2018-09-24T06:59:49.133Z,42.11
2018-09-24T07:04:47.634Z,41.50
2018-09-24T07:07:14.208Z,42.66
2018-09-24T07:09:40.750Z,41.67
2018-09-24T07:12:11.130Z,39.70
2018-09-24T07:14:37.621Z,39.76
2018-09-24T07:17:04.662Z,40.16
2018-09-24T07:19:31.203Z,40.46
2018-09-24T07:21:57.673Z,40.04
2018-09-24T07:24:24.165Z,40.41
2018-09-24T07:26:50.696Z,40.40
2018-09-24T07:29:17.155Z,39.48
2018-09-24T07:31:43.648Z,37.33
2018-09-24T07:34:11.173Z,38.41
2018-09-24T07:36:37.656Z,37.52
2018-09-24T07:39:04.243Z,37.87
2018-09-24T07:41:30.812Z,37.86
2018-09-24T07:43:57.298Z,38.66
2018-09-24T07:46:23.889Z,38.27
2018-09-24T07:48:50.448Z,37.08
2018-09-24T07:51:17.005Z,38.74
2018-09-24T07:53:43.515Z,37.30
2018-09-24T07:56:10.161Z,37.60
2018-09-24T07:58:36.708Z,35.92
2018-09-24T08:01:03.503Z,37.59
2018-09-24T08:03:30.188Z,38.16
2018-09-24T08:05:56.680Z,35.88
2018-09-24T08:08:23.268Z,38.37
2018-09-24T08:10:51.109Z,38.23
2018-09-24T08:13:17.632Z,35.39
2018-09-24T08:15:44.471Z,35.31
2018-09-24T08:18:11.083Z,35.03
2018-09-24T08:20:38.071Z,34.87
2018-09-24T08:23:04.957Z,36.63
2018-09-24T08:25:31.562Z,36.63
2018-09-24T08:27:58.243Z,35.43
2018-09-24T08:30:24.890Z,35.04
2018-09-24T08:32:51.575Z,36.21
2018-09-24T08:35:18.565Z,34.58
2018-09-24T08:37:45.312Z,35.12
2018-09-24T08:40:15.047Z,33.99
2018-09-24T08:42:41.631Z,34.97
2018-09-24T08:45:08.144Z,33.73
2018-09-24T08:47:36.199Z,33.66
2018-09-24T08:50:02.715Z,33.94
2018-09-24T08:52:29.217Z,34.06
2018-09-24T08:54:55.765Z,34.15
2018-09-24T08:57:22.341Z,33.60
2018-09-24T08:59:49.037Z,33.45
2018-09-24T09:02:15.511Z,32.62
2018-09-24T09:04:42.001Z,35.47
2018-09-24T09:07:08.543Z,35.29
2018-09-24T09:12:07.444Z,34.89
2018-09-24T09:14:34.109Z,35.47
2018-09-24T09:17:00.595Z,34.27
2018-09-24T09:19:28.175Z,34.13
2018-09-24T09:21:54.657Z,35.58
2018-09-24T09:24:21.123Z,35.26
2018-09-24T09:26:47.612Z,35.86
2018-09-24T09:29:14.225Z,33.98
2018-09-24T09:31:41.049Z,33.53
2018-09-24T09:34:07.580Z,35.72
2018-09-24T09:36:34.550Z,35.79
2018-09-24T09:39:01.129Z,34.43
2018-09-24T09:41:28.396Z,33.36
2018-09-24T09:43:54.956Z,33.07
2018-09-24T09:46:21.433Z,34.00
2018-09-24T09:48:47.981Z,33.11
2018-09-24T09:51:14.440Z,34.16
2018-09-24T09:53:40.983Z,32.87
2018-09-24T09:56:07.687Z,33.82
2018-09-24T09:58:34.146Z,34.54
2018-09-24T10:01:00.584Z,31.43
2018-09-24T10:05:59.000Z,33.34
2018-09-24T10:08:25.637Z,34.86
2018-09-24T10:10:52.138Z,35.19
2018-09-24T10:13:18.765Z,32.02
2018-09-24T10:15:45.241Z,34.30
2018-09-24T10:18:11.805Z,36.01
2018-09-24T10:20:38.346Z,33.03
2018-09-24T10:23:04.917Z,33.28
2018-09-24T10:25:31.449Z,32.55
2018-09-24T10:27:58.001Z,32.09
2018-09-24T10:30:24.490Z,32.25
2018-09-24T10:32:50.981Z,32.68
2018-09-24T10:35:17.488Z,32.19
2018-09-24T10:37:44.041Z,32.07
2018-09-24T10:40:10.610Z,30.08
2018-09-24T10:42:38.118Z,30.50
2018-09-24T10:45:04.700Z,30.90
2018-09-24T10:47:31.222Z,30.32
2018-09-24T10:49:57.712Z,32.04
2018-09-24T10:52:24.234Z,30.26
2018-09-24T10:54:50.793Z,32.42
2018-09-24T10:57:17.283Z,31.44
2018-09-24T10:59:43.841Z,31.31
2018-09-24T11:02:10.357Z,29.63
2018-09-24T11:04:36.969Z,30.80
2018-09-24T11:07:03.823Z,29.56
2018-09-24T11:09:30.361Z,29.97
2018-09-24T11:11:56.862Z,29.25
2018-09-24T11:14:23.407Z,28.04
2018-09-24T11:16:50.113Z,29.59
2018-09-24T11:19:16.899Z,28.27
2018-09-24T11:21:43.403Z,27.50
2018-09-24T11:24:09.919Z,28.13
2018-09-24T11:26:36.481Z,27.25
2018-09-24T11:29:03.151Z,26.47
2018-09-24T11:31:29.706Z,26.25
2018-09-24T11:33:56.281Z,25.82
2018-09-24T11:36:22.741Z,26.12
2018-09-24T11:38:49.215Z,25.49
2018-09-24T11:41:15.709Z,28.72
2018-09-24T11:43:42.234Z,28.31
2018-09-24T11:46:09.062Z,27.49
2018-09-24T11:53:38.898Z,26.01
2018-09-24T11:56:05.420Z,27.89
2018-09-24T11:58:31.965Z,28.92
2018-09-24T12:00:58.459Z,27.22
2018-09-24T12:03:24.927Z,27.17
2018-09-24T12:05:51.407Z,28.98
2018-09-24T12:08:17.955Z,27.43
2018-09-24T12:10:45.038Z,26.18
2018-09-24T12:13:11.783Z,27.78
2018-09-24T12:15:38.271Z,27.36
2018-09-24T12:18:04.793Z,25.32
2018-09-24T12:20:31.483Z,24.49
2018-09-24T12:22:57.995Z,25.42
2018-09-24T12:25:24.522Z,26.34
2018-09-24T12:27:50.997Z,27.74
2018-09-24T12:30:18.514Z,27.67
2018-09-24T12:32:45.019Z,26.54
2018-09-24T12:35:11.544Z,27.69
2018-09-24T12:37:38.056Z,27.60
2018-09-24T12:40:04.668Z,29.42
2018-09-24T12:42:31.613Z,29.24
2018-09-24T12:44:58.082Z,29.65
2018-09-24T12:47:24.776Z,28.26
2018-09-24T12:49:51.367Z,29.50
2018-09-24T12:52:17.853Z,31.03
2018-09-24T12:54:45.038Z,31.12
2018-09-24T12:57:11.505Z,28.93
2018-09-24T12:59:38.025Z,29.25
2018-09-24T13:02:04.495Z,29.74
2018-09-24T13:04:30.956Z,29.09
2018-09-24T13:06:57.494Z,29.06
2018-09-24T13:09:24.002Z,27.52
2018-09-24T13:11:50.512Z,26.50
2018-09-24T13:14:17.122Z,27.00
2018-09-24T13:16:43.569Z,27.41
2018-09-24T13:19:10.583Z,27.43
2018-09-24T13:21:37.146Z,25.82
2018-09-24T13:24:04.398Z,26.81
2018-09-24T13:26:30.886Z,27.18
2018-09-24T13:28:57.356Z,26.85
2018-09-24T13:31:23.833Z,27.02
2018-09-24T13:33:50.314Z,27.36
2018-09-24T13:36:16.871Z,27.04
2018-09-24T13:38:43.491Z,27.41
2018-09-24T13:41:10.054Z,26.75
2018-09-24T13:43:36.585Z,28.04
2018-09-24T13:46:03.229Z,26.28
2018-09-24T13:48:29.729Z,26.23
2018-09-24T13:50:56.260Z,28.40
2018-09-24T13:53:22.753Z,27.92
2018-09-24T13:55:49.924Z,27.28
2018-09-24T13:58:16.446Z,28.90
2018-09-24T14:00:42.955Z,26.73
2018-09-24T14:03:09.551Z,29.00
2018-09-24T14:05:36.058Z,28.45
2018-09-24T14:08:02.571Z,28.88
2018-09-24T14:10:29.056Z,26.80
2018-09-24T14:12:55.597Z,26.56
2018-09-24T14:15:22.200Z,27.03
2018-09-24T14:17:48.668Z,26.63
2018-09-24T14:22:47.365Z,26.13
2018-09-24T14:25:13.848Z,26.70
2018-09-24T14:27:40.361Z,25.69
2018-09-24T14:30:06.899Z,26.38
2018-09-24T14:32:33.413Z,26.73
2018-09-24T14:34:59.977Z,25.65
2018-09-24T14:37:26.532Z,28.40
2018-09-24T14:39:53.065Z,27.52
2018-09-24T14:42:20.441Z,27.14
2018-09-24T14:44:50.766Z,27.64
2018-09-24T14:47:17.317Z,27.55
2018-09-24T14:49:43.875Z,28.16
2018-09-24T14:54:42.537Z,27.34
2018-09-24T14:57:09.203Z,26.40
2018-09-24T14:59:36.493Z,26.98
2018-09-24T15:04:34.558Z,29.39
2018-09-24T15:07:01.493Z,26.74
2018-09-24T15:09:28.015Z,26.80
2018-09-24T15:11:56.833Z,27.82
2018-09-24T15:14:23.327Z,26.84
2018-09-24T15:16:49.807Z,26.69
2018-09-24T15:19:16.339Z,27.83
2018-09-24T15:21:42.880Z,28.83
2018-09-24T15:24:09.390Z,27.59
2018-09-24T15:26:35.871Z,28.01
2018-09-24T15:29:02.438Z,28.84
2018-09-24T15:31:28.945Z,30.19
2018-09-24T15:33:55.929Z,31.06
2018-09-24T15:36:22.476Z,30.75
2018-09-24T15:38:49.139Z,29.45
2018-09-24T15:41:16.155Z,29.37
2018-09-24T15:43:42.653Z,28.90
2018-09-24T15:46:09.392Z,30.19
2018-09-24T15:48:36.074Z,29.62
2018-09-24T15:51:02.767Z,29.92
2018-09-24T15:53:29.251Z,31.91
2018-09-24T15:55:56.065Z,32.41
2018-09-24T15:58:22.597Z,32.72
2018-09-24T16:00:49.112Z,31.60
2018-09-24T16:03:15.710Z,32.52
2018-09-24T16:05:42.295Z,30.16
2018-09-24T16:08:08.840Z,31.54
2018-09-24T16:10:35.390Z,31.25
2018-09-24T16:13:01.861Z,31.96
2018-09-24T16:15:28.373Z,33.53
2018-09-24T16:17:55.000Z,32.48
2018-09-24T16:20:21.482Z,33.20
2018-09-24T16:22:48.292Z,34.88
2018-09-24T16:25:15.890Z,34.20
2018-09-24T16:27:42.396Z,35.36
2018-09-24T16:30:08.890Z,35.33
2018-09-24T16:32:35.420Z,35.21
2018-09-24T16:35:02.116Z,36.92
2018-09-24T16:37:28.626Z,37.39
2018-09-24T16:39:55.342Z,37.37
2018-09-24T16:42:22.342Z,37.57
2018-09-24T16:44:48.801Z,37.46
2018-09-24T16:47:16.084Z,37.33
2018-09-24T16:49:42.604Z,37.90
2018-09-24T16:52:09.347Z,38.94
2018-09-24T16:54:35.857Z,38.78
2018-09-24T16:57:02.914Z,39.40
2018-09-24T16:59:30.078Z,39.07
2018-09-24T17:01:56.580Z,40.75
2018-09-24T17:04:23.109Z,40.96
2018-09-24T17:06:50.269Z,40.49
2018-09-24T17:09:17.924Z,40.40
2018-09-24T17:11:44.390Z,41.74
2018-09-24T17:14:11.027Z,41.55
2018-09-24T17:16:37.555Z,41.88
2018-09-24T17:19:04.045Z,38.83
2018-09-24T17:21:30.504Z,40.04
2018-09-24T17:23:57.087Z,39.33
2018-09-24T17:26:23.557Z,40.48
2018-09-24T17:28:50.213Z,38.95
2018-09-24T17:31:18.255Z,39.81
2018-09-24T17:33:44.753Z,39.87
2018-09-24T17:36:11.330Z,37.53
2018-09-24T17:38:39.010Z,39.00
2018-09-24T17:41:05.521Z,38.32
2018-09-24T17:43:32.034Z,35.51
2018-09-24T17:45:58.589Z,36.41
2018-09-24T17:48:25.294Z,37.40
2018-09-24T17:50:51.798Z,37.41
2018-09-24T17:53:18.736Z,36.34
2018-09-24T17:55:45.590Z,36.83
2018-09-24T17:58:12.141Z,36.70
2018-09-24T18:00:38.677Z,37.43
2018-09-24T18:03:05.323Z,37.54
2018-09-24T18:05:31.877Z,37.56
2018-09-24T18:07:58.397Z,37.81
2018-09-24T18:10:24.879Z,38.39
2018-09-24T18:12:51.495Z,39.07
2018-09-24T18:15:18.953Z,39.75
2018-09-24T18:17:45.505Z,40.69
2018-09-24T18:20:12.160Z,40.50
2018-09-24T18:22:38.661Z,39.80
2018-09-24T18:25:05.173Z,41.55
2018-09-24T18:27:31.695Z,42.12
2018-09-24T18:29:58.584Z,41.54
2018-09-24T18:32:25.117Z,40.65
2018-09-24T18:34:51.620Z,43.02
2018-09-24T18:37:19.335Z,42.39
2018-09-24T18:39:45.992Z,43.07
2018-09-24T18:42:12.689Z,42.65
2018-09-24T18:44:39.397Z,42.81
2018-09-24T18:47:05.968Z,41.91
2018-09-24T18:49:32.521Z,43.22
2018-09-24T18:51:59.070Z,43.34
2018-09-24T18:54:25.869Z,43.42
2018-09-24T18:56:52.381Z,43.09
2018-09-24T18:59:20.032Z,43.59
2018-09-24T19:01:46.747Z,43.04
2018-09-24T19:04:13.575Z,43.58
2018-09-24T19:06:40.495Z,43.80
2018-09-24T19:09:07.953Z,44.43
2018-09-24T19:11:36.243Z,44.27
2018-09-24T19:14:04.734Z,43.60
2018-09-24T19:16:33.561Z,42.81
2018-09-24T19:19:01.271Z,40.30
2018-09-24T19:21:28.299Z,41.51
2018-09-24T19:23:56.287Z,41.93
2018-09-24T19:26:23.112Z,42.04
2018-09-24T19:31:22.766Z,43.69
2018-09-24T19:33:49.928Z,44.67
2018-09-24T19:36:17.296Z,44.79
2018-09-24T19:38:44.763Z,46.18
2018-09-24T19:41:11.508Z,44.57
2018-09-24T19:43:43.132Z,43.88
2018-09-24T19:46:10.139Z,44.51
2018-09-24T19:48:37.424Z,46.64
2018-09-24T19:51:04.775Z,45.45
2018-09-24T19:53:34.160Z,44.45
2018-09-24T19:56:02.859Z,45.28
2018-09-24T20:01:03.003Z,45.33
2018-09-24T20:03:31.535Z,45.26
2018-09-24T20:05:58.274Z,44.70
2018-09-24T20:08:28.475Z,45.34
2018-09-24T20:10:59.178Z,44.84
2018-09-24T20:21:02.367Z,44.95
2018-09-24T20:23:30.188Z,45.95
2018-09-24T20:26:01.856Z,46.76
2018-09-24T20:31:05.043Z,45.17
2018-09-24T20:33:32.945Z,43.57
2018-09-24T20:36:02.395Z,44.01
2018-09-24T20:38:30.325Z,45.28
2018-09-24T20:41:02.229Z,45.02
2018-09-24T20:43:31.091Z,45.68
2018-09-24T20:45:58.084Z,44.88
2018-09-24T20:48:25.315Z,45.92
2018-09-24T20:50:53.898Z,45.48
2018-09-24T20:53:23.066Z,46.06
2018-09-24T20:55:50.815Z,45.63
2018-09-24T20:58:18.275Z,46.12
2018-09-24T21:00:47.997Z,46.47
2018-09-24T21:03:14.963Z,46.81
2018-09-24T21:05:41.731Z,46.84
2018-09-24T21:08:08.940Z,46.95
2018-09-24T21:10:35.997Z,46.93
2018-09-24T21:13:03.532Z,46.39
2018-09-24T21:15:30.671Z,46.52
2018-09-24T21:17:57.841Z,47.64
2018-09-24T21:20:24.960Z,47.19
2018-09-24T21:22:52.903Z,47.88
2018-09-24T21:25:20.125Z,47.89
2018-09-24T21:27:46.740Z,48.75
2018-09-24T21:30:13.970Z,48.52
2018-09-24T21:32:41.865Z,48.96
2018-09-24T21:35:08.910Z,48.50
2018-09-24T21:37:35.791Z,49.36
2018-09-24T21:40:03.384Z,49.03
2018-09-24T21:42:30.024Z,48.95
2018-09-24T21:44:57.318Z,49.78
2018-09-24T21:47:25.130Z,51.08
2018-09-24T21:49:51.885Z,51.07
2018-09-24T21:52:21.360Z,52.07
2018-09-24T21:54:48.743Z,51.75
2018-09-24T21:57:17.480Z,50.52
2018-09-24T21:59:44.817Z,50.56
2018-09-24T22:02:12.162Z,51.88
2018-09-24T22:04:38.791Z,52.05
2018-09-24T22:07:05.564Z,50.93
2018-09-24T22:09:32.564Z,49.75
2018-09-24T22:12:00.270Z,51.21
2018-09-24T22:14:31.913Z,52.10
2018-09-24T22:16:59.011Z,50.84
2018-09-24T22:19:25.861Z,50.47
2018-09-24T22:21:53.604Z,52.39
2018-09-24T22:24:20.318Z,50.90
2018-09-24T22:26:47.126Z,51.60
2018-09-24T22:29:13.841Z,53.05
2018-09-24T22:31:41.139Z,51.83
2018-09-24T22:34:10.409Z,51.43
2018-09-24T22:36:37.507Z,51.65
2018-09-24T22:39:04.940Z,51.96
2018-09-24T22:41:32.304Z,51.78
2018-09-24T22:46:31.675Z,51.31
2018-09-24T22:48:58.554Z,52.08
2018-09-24T22:51:32.320Z,51.53
2018-09-24T22:53:59.231Z,52.72
2018-09-24T22:56:27.007Z,52.62
2018-09-24T22:58:55.347Z,53.09
2018-09-24T23:01:22.123Z,52.58
2018-09-24T23:03:48.903Z,54.05
2018-09-24T23:06:16.351Z,54.57
2018-09-24T23:08:44.159Z,54.91
2018-09-24T23:11:10.874Z,54.93
2018-09-24T23:13:38.161Z,55.32
2018-09-24T23:16:05.681Z,54.86
2018-09-24T23:18:32.613Z,53.57
2018-09-24T23:20:59.417Z,54.51
2018-09-24T23:23:26.461Z,54.16
2018-09-24T23:25:52.921Z,53.55
2018-09-24T23:28:19.714Z,55.33
2018-09-24T23:30:46.664Z,54.71
2018-09-24T23:33:13.302Z,55.01
2018-09-24T23:35:39.879Z,54.86
2018-09-24T23:38:07.308Z,54.03
2018-09-24T23:40:34.860Z,55.28
2018-09-24T23:43:02.165Z,54.38
2018-09-24T23:45:29.035Z,54.69
2018-09-24T23:47:55.856Z,54.79
2018-09-24T23:50:22.583Z,54.26
2018-09-24T23:52:49.323Z,55.14
2018-09-24T23:55:16.021Z,53.94
2018-09-24T23:57:43.339Z,54.22
